Résultats

Courses des Pyramides
2.5Km Benjamins:2003-2004. Édition 2016.

2.5 Km
05/03/2016 à 14:10:00 - GRande Motte (34)
30 arrivant(e)s.


 
Les autres classements de cet évènement




Place▲ Temps Dossard Nom Prenom Categ #Categ Sexe #Sexe ClubVit Moy Diplôme Partager
1 00:09:04 5918 DUPUY GUILHEM BEM 1 M 1 SMA16.00
2 00:09:10 5342 BENCHERIF SOUHAILA MIF 1 F 1 16.00
3 00:09:14 5922 GARDE MATHIS BEM 2 M 2 ORCHESTRA-PREMAMAN16.00
4 00:09:18 5926 GUIDEAU MAEL BEM 3 M 3 CLERMONT ENDURANCE16.00
5 00:09:41 5955 VAROQUAUX ELIOTT BEM 4 M 4 CLERMONT ENDURANCE15.00
6 00:09:53 5934 KACHOU HIND BEF 1 F 2 15.00
7 00:10:09 5943 MELIS LOUIS BEM 5 M 5 ISTRES SPORT TRIATHLON14.00
8 00:10:27 5936 LANGLOIS NICOLAS BEM 6 M 6 TARASCON ATHLETISME14.00
9 00:10:36 5911 CLEMENT OBACZ BEM 7 M 7 MPT ISTRES14.00
10 00:10:49 5946 ODISIO TOM BEM 8 M 8 13.00
11 00:10:52 5953 TOTA MAEVA BEF 2 F 3 13.00
12 00:10:56 5941 MATHON SACHA BEM 9 M 9 13.00
13 00:10:57 5919 DUPUY MARIUS BEM 10 M 10 13.00
14 00:10:58 5952 RUE LOAN BEM 11 M 11 LATITUDE VTT13.00
15 00:11:00 5935 KACI MARIE-SARAH BEF 3 F 4 13.00
16 00:11:50 5930 HERNANDEZ MATTEO BEM 12 M 12 VELO CLUB SALINDROIS12.00
17 00:11:55 5904 BARNAUD CHLOE BEF 4 F 5 UBISOFT MONTPELLIER12.00
18 00:12:22 5940 LONQUETY OCEANE BEF 5 F 6 12.00
19 00:12:36 5908 BRANCART MAXENCE BEM 13 M 13 C'APT HEURS 8411.00
20 00:12:36 5951 ROSSI LOUKA BEM 14 M 14 11.00
21 00:12:44 5932 HOUILLIOT ESTEBAN BEM 15 M 15 11.00
22 00:12:49 5924 GIOVINNAZO JULIETTE BEF 6 F 7 11.00
23 00:12:57 5939 LHERITIER CHARLES BEM 16 M 16 11.00
24 00:12:59 5954 TRUFINET CASSY BEF 7 F 8 11.00
25 00:13:06 5945 NICODEME PAULINE BEF 8 F 9 11.00
26 00:14:04 5901 ALEXANDRE MAEVA BEF 9 F 10 COURIR A VAUVERT10.00
27 00:14:18 5956 ZERNOTT JULES BEM 17 M 17 CLERMONT ENDURANCE10.00
28 00:14:52 5905 BLAIS EMMA BEF 10 F 11 JSP MEZE/APEF SERVICES LA GRANDE MOTTE10.00
29 00:17:08 5942 MEDJANI CYLIA BEF 11 F 12 TARASCON ATHLETISME8.00
30 00:17:14 5928 HAMOUMI SOFIA BEF 12 F 13 TARASCON ATHLETISME8.00